createdAt,value
2019-01-24T00:00:35.161Z,93.72
2019-01-24T00:03:05.113Z,93.37
2019-01-24T00:05:34.667Z,93.43
2019-01-24T00:08:04.329Z,93.43
2019-01-24T00:10:33.863Z,93.37
2019-01-24T00:13:03.184Z,93.37
2019-01-24T00:15:32.618Z,93.37
2019-01-24T00:18:01.959Z,93.23
2019-01-24T00:20:31.550Z,93.77
2019-01-24T00:23:01.048Z,93.99
2019-01-24T00:25:30.579Z,93.47
2019-01-24T00:28:00.176Z,93.52
2019-01-24T00:30:29.930Z,93.90
2019-01-24T00:32:59.622Z,94.10
2019-01-24T00:35:29.086Z,94.19
2019-01-24T00:37:58.567Z,94.08
2019-01-24T00:40:28.227Z,93.96
2019-01-24T00:42:57.739Z,94.26
2019-01-24T00:45:27.149Z,95.16
2019-01-24T00:47:56.541Z,95.62
2019-01-24T00:50:26.170Z,96.71
2019-01-24T00:52:55.581Z,97.67
2019-01-24T00:55:25.119Z,98.02
2019-01-24T00:57:54.532Z,98.33
2019-01-24T01:00:25.260Z,98.57
2019-01-24T01:02:54.783Z,99.07
2019-01-24T01:05:24.505Z,99.44
2019-01-24T01:07:54.166Z,99.23
2019-01-24T01:10:24.025Z,99.25
2019-01-24T01:12:53.385Z,98.94
2019-01-24T01:15:22.919Z,97.71
2019-01-24T01:17:52.231Z,97.51
2019-01-24T01:20:23.350Z,97.60
2019-01-24T01:22:53.049Z,97.59
2019-01-24T01:25:22.378Z,97.57
2019-01-24T01:27:51.695Z,97.45
2019-01-24T01:30:22.774Z,97.94
2019-01-24T01:32:52.669Z,97.92
2019-01-24T01:35:22.074Z,97.81
2019-01-24T01:37:51.426Z,97.62
2019-01-24T01:40:20.907Z,97.57
2019-01-24T01:42:50.263Z,97.53
2019-01-24T01:45:21.348Z,97.37
2019-01-24T01:47:50.891Z,97.19
2019-01-24T01:50:24.756Z,97.06
2019-01-24T01:52:54.080Z,96.74
2019-01-24T01:55:23.415Z,96.29
2019-01-24T01:57:52.754Z,96.07
2019-01-24T02:00:23.889Z,95.79
2019-01-24T02:02:53.209Z,95.45
2019-01-24T02:05:22.539Z,95.19
2019-01-24T02:07:52.357Z,94.71
2019-01-24T02:10:23.358Z,94.55
2019-01-24T02:12:52.695Z,94.41
2019-01-24T02:15:22.530Z,94.27
2019-01-24T02:17:51.980Z,93.99
2019-01-24T02:20:24.498Z,93.89
2019-01-24T02:22:54.222Z,93.99
2019-01-24T02:25:23.878Z,94.11
2019-01-24T02:27:53.251Z,94.28
2019-01-24T02:30:27.854Z,94.28
2019-01-24T02:32:57.303Z,94.00
2019-01-24T02:35:26.645Z,93.94
2019-01-24T02:37:56.001Z,94.09
2019-01-24T02:40:25.344Z,93.92
2019-01-24T02:42:54.669Z,93.84
2019-01-24T02:45:24.771Z,93.75
2019-01-24T02:47:54.313Z,93.70
2019-01-24T02:50:23.763Z,94.06
2019-01-24T02:52:53.161Z,93.96
2019-01-24T02:55:22.494Z,94.10
2019-01-24T02:57:51.911Z,94.33
2019-01-24T03:00:22.544Z,94.36
2019-01-24T03:02:52.096Z,94.31
2019-01-24T03:05:22.540Z,93.99
2019-01-24T03:07:52.223Z,94.28
2019-01-24T03:10:21.701Z,94.43
2019-01-24T03:12:51.106Z,94.36
2019-01-24T03:15:21.686Z,94.12
2019-01-24T03:17:51.245Z,93.77
2019-01-24T03:20:20.544Z,93.32
2019-01-24T03:22:50.406Z,93.03
2019-01-24T03:25:20.456Z,92.69
2019-01-24T03:27:49.847Z,92.58
2019-01-24T03:30:20.562Z,92.19
2019-01-24T03:32:50.167Z,91.81
2019-01-24T03:35:22.396Z,91.82
2019-01-24T03:37:51.856Z,92.00
2019-01-24T03:40:21.431Z,92.26
2019-01-24T03:42:50.937Z,92.62
2019-01-24T03:45:20.233Z,92.45
2019-01-24T03:47:49.579Z,92.21
2019-01-24T03:50:20.354Z,92.02
2019-01-24T03:52:49.912Z,91.94
2019-01-24T03:55:20.656Z,91.85
2019-01-24T03:57:50.114Z,91.64
2019-01-24T04:00:21.313Z,91.58
2019-01-24T04:02:50.751Z,91.39
2019-01-24T04:05:21.278Z,91.45
2019-01-24T04:07:50.681Z,91.18
2019-01-24T04:10:21.052Z,91.01
2019-01-24T04:12:50.598Z,90.85
2019-01-24T04:15:22.074Z,90.70
2019-01-24T04:17:51.437Z,90.76
2019-01-24T04:20:20.968Z,90.56
2019-01-24T04:22:50.342Z,90.58
2019-01-24T04:25:19.668Z,90.57
2019-01-24T04:27:49.038Z,90.38
2019-01-24T04:30:20.480Z,90.34
2019-01-24T04:32:50.161Z,90.49
2019-01-24T04:35:20.360Z,90.68
2019-01-24T04:37:49.996Z,90.58
2019-01-24T04:40:20.048Z,90.30
2019-01-24T04:42:49.596Z,90.16
2019-01-24T04:45:19.243Z,90.00
2019-01-24T04:47:48.603Z,90.03
2019-01-24T04:50:18.672Z,90.38
2019-01-24T04:52:48.004Z,90.66
2019-01-24T04:55:19.278Z,90.95
2019-01-24T04:57:48.927Z,91.37
2019-01-24T05:00:20.854Z,91.98
2019-01-24T05:02:50.220Z,92.54
2019-01-24T05:05:27.193Z,93.15
2019-01-24T05:07:50.859Z,93.88
2019-01-24T05:10:20.200Z,96.20
2019-01-24T05:12:49.520Z,98.78
2019-01-24T05:15:18.846Z,100.00
2019-01-24T05:17:48.280Z,100.00
2019-01-24T05:20:17.662Z,100.00
2019-01-24T05:22:46.992Z,100.00
2019-01-24T05:25:17.370Z,100.00
2019-01-24T05:27:46.689Z,100.00
2019-01-24T05:30:27.208Z,100.00
2019-01-24T05:32:56.525Z,100.00
2019-01-24T05:35:26.194Z,100.00
2019-01-24T05:37:55.623Z,100.00
2019-01-24T05:40:24.959Z,100.00
2019-01-24T05:42:54.282Z,100.00
2019-01-24T05:45:23.661Z,100.00
2019-01-24T05:47:52.993Z,100.00
2019-01-24T05:50:22.353Z,100.00
2019-01-24T05:52:51.673Z,100.00
2019-01-24T05:55:21.035Z,100.00
2019-01-24T05:57:50.383Z,100.00
2019-01-24T06:00:42.467Z,100.00
2019-01-24T06:03:11.810Z,100.00
2019-01-24T06:05:41.863Z,100.00
2019-01-24T06:08:11.459Z,100.00
2019-01-24T06:10:40.785Z,100.00
2019-01-24T06:13:10.143Z,100.00
2019-01-24T06:15:39.546Z,100.00
2019-01-24T06:18:08.887Z,100.00
2019-01-24T06:20:38.303Z,100.00
2019-01-24T06:23:07.631Z,100.00
2019-01-24T06:25:37.001Z,100.00
2019-01-24T06:28:06.682Z,100.00
2019-01-24T06:30:36.039Z,100.00
2019-01-24T06:33:05.373Z,100.00
2019-01-24T06:35:34.721Z,100.00
2019-01-24T06:38:04.090Z,100.00
2019-01-24T06:40:33.646Z,100.00
2019-01-24T06:43:03.003Z,100.00
2019-01-24T06:45:32.345Z,100.00
2019-01-24T06:48:01.695Z,100.00
2019-01-24T06:50:31.083Z,100.00
2019-01-24T06:53:00.402Z,100.00
2019-01-24T06:55:30.329Z,100.00
2019-01-24T06:57:59.677Z,100.00
2019-01-24T07:00:29.041Z,100.00
2019-01-24T07:02:58.411Z,100.00
2019-01-24T07:05:27.786Z,100.00
2019-01-24T07:07:57.234Z,100.00
2019-01-24T07:10:26.562Z,100.00
2019-01-24T07:12:55.896Z,100.00
2019-01-24T07:15:25.371Z,100.00
2019-01-24T07:17:54.742Z,100.00
2019-01-24T07:20:24.069Z,100.00
2019-01-24T07:22:53.491Z,100.00
2019-01-24T07:25:24.613Z,100.00
2019-01-24T07:27:53.959Z,100.00
2019-01-24T07:30:23.335Z,100.00
2019-01-24T07:32:52.888Z,100.00
2019-01-24T07:35:22.339Z,100.00
2019-01-24T07:37:51.786Z,100.00
2019-01-24T07:40:21.235Z,100.00
2019-01-24T07:42:50.815Z,100.00
2019-01-24T07:45:22.635Z,100.00
2019-01-24T07:47:52.107Z,100.00
2019-01-24T07:50:21.450Z,100.00
2019-01-24T07:52:50.914Z,100.00
2019-01-24T07:55:20.315Z,100.00
2019-01-24T07:57:50.052Z,100.00
2019-01-24T08:00:22.020Z,100.00
2019-01-24T08:02:51.341Z,100.00
2019-01-24T08:05:21.156Z,100.00
2019-01-24T08:07:50.488Z,100.00
2019-01-24T08:10:20.659Z,100.00
2019-01-24T08:12:49.988Z,100.00
2019-01-24T08:15:20.384Z,100.00
2019-01-24T08:17:50.204Z,100.00
2019-01-24T08:20:21.423Z,100.00
2019-01-24T08:22:50.762Z,100.00
2019-01-24T08:25:20.123Z,100.00
2019-01-24T08:27:49.598Z,100.00
2019-01-24T08:30:26.647Z,100.00
2019-01-24T08:32:56.018Z,100.00
2019-01-24T08:35:25.485Z,100.00
2019-01-24T08:37:54.847Z,100.00
2019-01-24T08:40:24.319Z,100.00
2019-01-24T08:42:53.794Z,100.00
2019-01-24T08:45:23.150Z,100.00
2019-01-24T08:47:52.497Z,100.00
2019-01-24T08:50:22.827Z,100.00
2019-01-24T08:52:52.241Z,100.00
2019-01-24T08:55:27.319Z,100.00
2019-01-24T08:57:56.673Z,100.00
2019-01-24T09:00:26.029Z,100.00
2019-01-24T09:02:55.540Z,100.00
2019-01-24T09:05:25.119Z,100.00
2019-01-24T09:07:54.740Z,100.00
2019-01-24T09:10:27.029Z,100.00
2019-01-24T09:12:56.407Z,100.00
2019-01-24T09:15:27.197Z,100.00
2019-01-24T09:17:56.572Z,100.00
2019-01-24T09:20:26.004Z,100.00
2019-01-24T09:22:55.682Z,100.00
2019-01-24T09:25:25.121Z,100.00
2019-01-24T09:27:54.476Z,100.00
2019-01-24T09:30:25.494Z,100.00
2019-01-24T09:32:54.826Z,100.00
2019-01-24T09:35:25.626Z,99.12
2019-01-24T09:37:54.962Z,98.25
2019-01-24T09:40:24.415Z,97.63
2019-01-24T09:42:53.882Z,96.79
2019-01-24T09:45:28.185Z,96.75
2019-01-24T09:47:59.518Z,95.92
2019-01-24T09:50:29.236Z,95.92
2019-01-24T09:52:58.575Z,96.76
2019-01-24T09:55:28.003Z,95.76
2019-01-24T09:57:57.356Z,95.22
2019-01-24T10:00:28.894Z,94.37
2019-01-24T10:02:58.359Z,93.57
2019-01-24T10:05:27.722Z,92.54
2019-01-24T10:07:57.067Z,92.11
2019-01-24T10:10:26.807Z,90.41
2019-01-24T10:12:56.938Z,90.67
2019-01-24T10:15:26.298Z,88.11
2019-01-24T10:17:55.656Z,88.15
2019-01-24T10:20:26.189Z,87.46
2019-01-24T10:22:55.869Z,87.24
2019-01-24T10:25:33.681Z,87.19
2019-01-24T10:28:03.064Z,87.80
2019-01-24T10:30:32.389Z,87.09
2019-01-24T10:33:01.923Z,87.42
2019-01-24T10:35:31.267Z,84.55
2019-01-24T10:38:00.610Z,84.29
2019-01-24T10:40:31.342Z,82.60
2019-01-24T10:43:00.999Z,81.01
2019-01-24T10:45:30.345Z,79.18
2019-01-24T10:47:59.886Z,77.86
2019-01-24T10:50:29.331Z,77.11
2019-01-24T10:52:58.820Z,76.31
2019-01-24T10:55:29.989Z,75.50
2019-01-24T10:58:01.637Z,75.96
2019-01-24T11:00:49.087Z,74.53
2019-01-24T11:03:19.615Z,75.06
2019-01-24T11:05:49.586Z,74.52
2019-01-24T11:08:18.898Z,74.46
2019-01-24T11:10:48.208Z,74.36
2019-01-24T11:13:17.561Z,73.91
2019-01-24T11:15:46.896Z,73.97
2019-01-24T11:18:16.206Z,73.89
2019-01-24T11:20:45.619Z,74.54
2019-01-24T11:23:14.965Z,75.45
2019-01-24T11:25:44.303Z,77.11
2019-01-24T11:28:13.639Z,76.81
2019-01-24T11:30:43.069Z,76.55
2019-01-24T11:33:13.318Z,77.80
2019-01-24T11:35:42.680Z,79.08
2019-01-24T11:38:12.118Z,80.15
2019-01-24T11:40:41.461Z,81.78
2019-01-24T11:43:10.788Z,82.66
2019-01-24T11:45:42.145Z,83.12
2019-01-24T11:48:11.583Z,82.08
2019-01-24T11:50:40.904Z,83.74
2019-01-24T11:53:10.223Z,83.80
2019-01-24T11:55:39.851Z,84.31
2019-01-24T11:58:09.202Z,84.39
2019-01-24T12:00:43.936Z,84.28
2019-01-24T12:03:13.258Z,84.15
2019-01-24T12:05:42.922Z,84.35
2019-01-24T12:08:12.266Z,83.93
2019-01-24T12:10:41.712Z,84.19
2019-01-24T12:13:11.519Z,84.26
2019-01-24T12:15:40.848Z,84.29
2019-01-24T12:18:10.174Z,84.91
2019-01-24T12:20:39.571Z,85.03
2019-01-24T12:23:08.876Z,85.67
2019-01-24T12:25:38.210Z,86.54
2019-01-24T12:28:07.583Z,86.75
2019-01-24T12:30:37.631Z,87.04
2019-01-24T12:33:07.807Z,87.32
2019-01-24T12:35:37.170Z,87.51
2019-01-24T12:38:06.819Z,88.01
2019-01-24T12:40:36.153Z,87.80
2019-01-24T12:43:05.592Z,87.33
2019-01-24T12:45:36.892Z,87.01
2019-01-24T12:48:07.125Z,87.01
2019-01-24T12:50:36.785Z,87.13
2019-01-24T12:53:07.447Z,87.21
2019-01-24T12:55:36.862Z,86.03
2019-01-24T12:58:06.532Z,86.76
2019-01-24T13:00:37.856Z,87.23
2019-01-24T13:03:07.301Z,88.29
2019-01-24T13:05:36.685Z,89.34
2019-01-24T13:08:06.999Z,89.25
2019-01-24T13:10:36.430Z,88.95
2019-01-24T13:13:06.420Z,90.41
2019-01-24T13:15:36.229Z,91.03
2019-01-24T13:18:07.069Z,91.06
2019-01-24T13:20:36.512Z,91.39
2019-01-24T13:23:06.182Z,91.61
2019-01-24T13:25:36.289Z,91.61
2019-01-24T13:28:06.573Z,91.62
2019-01-24T13:30:36.144Z,91.81
2019-01-24T13:33:06.601Z,92.07
2019-01-24T13:35:36.089Z,92.59
2019-01-24T13:38:06.160Z,92.97
2019-01-24T13:40:35.500Z,93.14
2019-01-24T13:43:05.074Z,92.85
2019-01-24T13:45:38.992Z,92.85
2019-01-24T13:48:08.547Z,92.67
2019-01-24T13:50:37.886Z,93.50
2019-01-24T13:53:07.817Z,93.50
2019-01-24T13:55:37.162Z,93.92
2019-01-24T13:58:07.711Z,94.46
2019-01-24T14:00:41.479Z,95.42
2019-01-24T14:03:42.148Z,96.12
2019-01-24T14:06:11.891Z,96.71
2019-01-24T14:08:41.251Z,97.63
2019-01-24T14:11:17.860Z,97.98
2019-01-24T14:13:42.079Z,97.73
2019-01-24T14:16:11.463Z,97.84
2019-01-24T14:18:40.834Z,97.84
2019-01-24T14:21:10.182Z,97.61
2019-01-24T14:23:39.642Z,97.61
2019-01-24T14:26:09.458Z,97.65
2019-01-24T14:28:38.790Z,97.60
2019-01-24T14:31:08.134Z,97.60
2019-01-24T14:33:37.481Z,99.12
2019-01-24T14:36:06.832Z,100.00
2019-01-24T14:38:36.165Z,100.00
2019-01-24T14:41:05.574Z,100.00
2019-01-24T14:43:35.009Z,100.00
2019-01-24T14:46:04.334Z,100.00
2019-01-24T14:48:33.707Z,100.00
2019-01-24T14:51:03.052Z,100.00
2019-01-24T14:53:32.516Z,100.00
2019-01-24T14:56:01.888Z,100.00
2019-01-24T14:58:31.263Z,100.00
2019-01-24T15:01:08.900Z,100.00
2019-01-24T15:03:38.266Z,100.00
2019-01-24T15:06:07.641Z,100.00
2019-01-24T15:08:36.978Z,100.00
2019-01-24T15:11:06.372Z,100.00
2019-01-24T15:13:35.695Z,100.00
2019-01-24T15:16:05.560Z,100.00
2019-01-24T15:18:34.880Z,100.00
2019-01-24T15:21:04.428Z,100.00
2019-01-24T15:23:34.147Z,99.94
2019-01-24T15:26:03.715Z,99.82
2019-01-24T15:28:33.139Z,99.44
2019-01-24T15:31:02.666Z,98.96
2019-01-24T15:33:32.184Z,98.70
2019-01-24T15:36:01.638Z,98.57
2019-01-24T15:38:31.006Z,98.21
2019-01-24T15:41:01.276Z,97.53
2019-01-24T15:43:31.796Z,97.78
2019-01-24T15:46:01.203Z,97.02
2019-01-24T15:48:30.720Z,96.53
2019-01-24T15:51:00.169Z,96.37
2019-01-24T15:53:32.504Z,96.55
2019-01-24T15:56:01.853Z,96.84
2019-01-24T15:58:31.217Z,96.57
2019-01-24T16:01:00.549Z,96.10
2019-01-24T16:03:29.915Z,95.89
2019-01-24T16:05:59.240Z,95.90
2019-01-24T16:08:28.644Z,96.20
2019-01-24T16:10:58.175Z,96.18
2019-01-24T16:13:27.543Z,95.66
2019-01-24T16:15:58.575Z,95.33
2019-01-24T16:18:28.006Z,94.81
2019-01-24T16:20:57.616Z,94.19
2019-01-24T16:23:27.336Z,94.20
2019-01-24T16:25:56.769Z,94.27
2019-01-24T16:28:26.195Z,94.79
2019-01-24T16:30:56.640Z,94.88
2019-01-24T16:33:26.765Z,95.10
2019-01-24T16:35:56.401Z,95.36
2019-01-24T16:38:25.768Z,95.94
2019-01-24T16:40:56.046Z,96.43
2019-01-24T16:43:25.408Z,96.20
2019-01-24T16:45:54.821Z,96.45
2019-01-24T16:48:24.655Z,96.69
2019-01-24T16:50:53.994Z,97.05
2019-01-24T16:53:23.577Z,96.79
2019-01-24T16:55:52.989Z,96.79
2019-01-24T16:58:22.336Z,96.67
2019-01-24T17:01:05.615Z,96.82
2019-01-24T17:03:34.947Z,96.53
2019-01-24T17:06:04.467Z,96.29
2019-01-24T17:08:33.795Z,96.35
2019-01-24T17:11:03.192Z,96.38
2019-01-24T17:13:32.534Z,96.04
2019-01-24T17:16:01.928Z,96.03
2019-01-24T17:18:33.305Z,96.12
2019-01-24T17:21:02.817Z,96.15
2019-01-24T17:23:32.168Z,96.22
2019-01-24T17:26:01.653Z,96.82
2019-01-24T17:28:31.135Z,97.05
2019-01-24T17:31:00.623Z,97.20
2019-01-24T17:33:30.539Z,97.57
2019-01-24T17:35:59.947Z,97.95
2019-01-24T17:38:31.145Z,98.25
2019-01-24T17:41:00.958Z,98.70
2019-01-24T17:43:30.595Z,99.07
2019-01-24T17:46:00.252Z,99.74
2019-01-24T17:48:29.648Z,100.00
2019-01-24T17:50:59.367Z,100.00
2019-01-24T17:53:28.729Z,100.00
2019-01-24T17:55:59.427Z,100.00
2019-01-24T17:58:29.091Z,100.00
2019-01-24T18:00:58.548Z,100.00
2019-01-24T18:03:28.009Z,100.00
2019-01-24T18:05:57.623Z,100.00
2019-01-24T18:08:31.237Z,100.00
2019-01-24T18:10:59.003Z,100.00
2019-01-24T18:13:28.659Z,100.00
2019-01-24T18:15:59.500Z,99.98
2019-01-24T18:18:30.306Z,99.38
2019-01-24T18:20:59.837Z,98.83
2019-01-24T18:23:29.491Z,98.28
2019-01-24T18:25:59.185Z,97.89
2019-01-24T18:28:28.834Z,97.54
2019-01-24T18:30:58.319Z,95.94
2019-01-24T18:33:29.231Z,95.09
2019-01-24T18:36:00.665Z,95.58
2019-01-24T18:38:31.352Z,94.66
2019-01-24T18:41:01.018Z,95.86
2019-01-24T18:43:31.023Z,95.99
2019-01-24T18:46:02.468Z,96.29
2019-01-24T18:48:32.043Z,95.37
2019-01-24T18:51:01.714Z,95.85
2019-01-24T18:53:31.374Z,94.48
2019-01-24T18:56:01.015Z,94.53
2019-01-24T18:58:31.687Z,94.46
2019-01-24T19:01:01.250Z,94.50
2019-01-24T19:03:31.081Z,93.69
2019-01-24T19:06:00.786Z,94.30
2019-01-24T19:08:30.361Z,94.01
2019-01-24T19:11:02.657Z,94.57
2019-01-24T19:13:32.291Z,94.66
2019-01-24T19:16:01.836Z,94.29
2019-01-24T19:18:31.170Z,93.98
2019-01-24T19:21:01.125Z,95.59
2019-01-24T19:23:30.762Z,94.01
2019-01-24T19:26:00.404Z,91.50
2019-01-24T19:28:29.856Z,91.97
2019-01-24T19:30:59.563Z,91.47
2019-01-24T19:33:29.515Z,91.57
2019-01-24T19:36:00.347Z,91.08
2019-01-24T19:38:30.180Z,89.54
2019-01-24T19:40:59.705Z,91.08
2019-01-24T19:43:30.208Z,91.01
2019-01-24T19:45:59.764Z,90.80
2019-01-24T19:48:29.281Z,92.85
2019-01-24T19:50:59.179Z,90.79
2019-01-24T19:53:28.743Z,92.19
2019-01-24T19:55:58.366Z,87.61
2019-01-24T19:58:27.977Z,90.19
2019-01-24T20:00:59.922Z,88.42
2019-01-24T20:03:29.593Z,91.40
2019-01-24T20:05:59.151Z,92.33
2019-01-24T20:08:28.676Z,92.70
2019-01-24T20:10:58.308Z,93.87
2019-01-24T20:13:27.913Z,93.97
2019-01-24T20:15:57.797Z,93.42
2019-01-24T20:18:27.148Z,93.62
2019-01-24T20:20:56.495Z,93.74
2019-01-24T20:23:28.164Z,93.73
2019-01-24T20:25:57.542Z,94.42
2019-01-24T20:28:26.981Z,94.51
2019-01-24T20:30:56.639Z,93.68
2019-01-24T20:33:25.991Z,94.48
2019-01-24T20:35:57.945Z,93.45
2019-01-24T20:38:27.338Z,93.73
2019-01-24T20:40:56.736Z,93.67
2019-01-24T20:43:26.430Z,93.77
2019-01-24T20:45:55.867Z,94.08
2019-01-24T20:48:25.217Z,94.11
2019-01-24T20:50:55.176Z,93.17
2019-01-24T20:53:24.591Z,93.37
2019-01-24T20:55:53.962Z,92.85
2019-01-24T20:58:23.283Z,92.68
2019-01-24T21:00:52.603Z,93.19
2019-01-24T21:03:21.964Z,93.75
2019-01-24T21:05:51.289Z,93.90
2019-01-24T21:08:20.633Z,93.82
2019-01-24T21:10:49.979Z,93.29
2019-01-24T21:13:19.323Z,93.61
2019-01-24T21:15:48.684Z,93.39
2019-01-24T21:18:18.207Z,93.50
2019-01-24T21:20:47.687Z,93.46
2019-01-24T21:23:17.801Z,92.91
2019-01-24T21:25:49.376Z,92.12
2019-01-24T21:28:21.607Z,91.44
2019-01-24T21:30:50.988Z,90.59
2019-01-24T21:33:20.541Z,90.57
2019-01-24T21:35:50.384Z,90.58
2019-01-24T21:38:20.014Z,90.25
2019-01-24T21:40:49.949Z,90.56
2019-01-24T21:43:19.478Z,90.98
2019-01-24T21:45:49.377Z,90.97
2019-01-24T21:48:19.874Z,90.92
2019-01-24T21:50:49.951Z,91.07
2019-01-24T21:53:19.839Z,91.20
2019-01-24T21:55:49.344Z,90.94
2019-01-24T21:58:18.883Z,90.91
2019-01-24T22:00:48.393Z,91.07
2019-01-24T22:03:17.909Z,91.38
2019-01-24T22:05:47.439Z,91.51
2019-01-24T22:08:16.953Z,91.68
2019-01-24T22:10:46.507Z,91.50
2019-01-24T22:13:16.102Z,91.58
2019-01-24T22:15:45.560Z,92.14
2019-01-24T22:18:14.911Z,92.14
2019-01-24T22:20:44.243Z,91.62
2019-01-24T22:23:13.576Z,91.66
2019-01-24T22:25:42.890Z,91.50
2019-01-24T22:28:12.198Z,91.23
2019-01-24T22:30:50.240Z,91.02
2019-01-24T22:33:19.558Z,91.14
2019-01-24T22:35:48.931Z,91.33
2019-01-24T22:38:18.279Z,91.56
2019-01-24T22:40:47.583Z,91.58
2019-01-24T22:43:16.927Z,91.69
2019-01-24T22:45:46.283Z,91.17
2019-01-24T22:48:15.626Z,91.17
2019-01-24T22:50:44.973Z,90.70
2019-01-24T22:53:14.296Z,91.06
2019-01-24T22:55:43.687Z,91.73
2019-01-24T22:58:13.127Z,91.81
2019-01-24T23:01:13.257Z,91.61
2019-01-24T23:03:47.860Z,91.61
2019-01-24T23:06:17.410Z,91.31
2019-01-24T23:08:46.835Z,90.86
2019-01-24T23:11:16.161Z,90.67
2019-01-24T23:13:45.558Z,90.43
2019-01-24T23:16:14.891Z,90.14
2019-01-24T23:18:44.224Z,90.69
2019-01-24T23:21:13.726Z,90.67
2019-01-24T23:23:43.067Z,90.62
2019-01-24T23:26:12.430Z,90.36
2019-01-24T23:28:41.776Z,90.44
2019-01-24T23:31:11.140Z,90.71
2019-01-24T23:33:40.490Z,90.64
2019-01-24T23:36:09.937Z,90.05
2019-01-24T23:38:39.381Z,90.05
2019-01-24T23:41:08.702Z,90.55
2019-01-24T23:43:38.061Z,90.88
2019-01-24T23:46:07.442Z,90.51
2019-01-24T23:48:36.823Z,90.75
2019-01-24T23:51:06.130Z,92.53
2019-01-24T23:53:35.482Z,93.81
2019-01-24T23:56:04.946Z,93.97
2019-01-24T23:58:34.254Z,93.28
